Portada
METAR-TAF:

METAR-TAF

Aeroports :

Plataforma petroliera

Troll A, Noruega

latitud: 60-38-42N, longitud: 3-43-29E, altitud: 20 m

Observació

L'informe es va fer fa 39 minuts, a les 11:50 UTC
Vent 18 kt del Sud
Temperatura 8°C
Humitat 87%
Pressió 1031 hPa
Visibilitat 10 km o més

METAR: ENQA 251150Z AUTO 17018KT 9999NDV BKN011/// OVC031/// 08/06 Q1031 W07/S3

Hora: 14:29 (12:29 UTC)


TAF: manca

Observacions i pronòstics meteorològics de més de 4000 aeroports (METAR i TAF).

Les estacions disponibles són els punts grocs i vermells al mapa.

Posi el ratolí al punt desitjat per veure el nom de l'estació.

Feu clic per veure les observacions i els pronòstics meteorològics.

Per canviar el mapa: feu clic els botons verds amb una creu de color negre per apropar; al botó verd amb un guió per allunyar la imatge; o en les fletxes verdes per a mapes adjacents.


METAR-TAF: